Time;durP1;ratioP1;P1;durP2;ratioP2;P2;SDS_P1;SDS_P2;PMS_P1;PMS_P2;Temp;Humidity;BMP_temperature;BMP_pressure;BME280_temperature;BME280_humidity;BME280_pressure;Samples;Min_cycle;Max_cycle;Signal;HPM_P1;HPM_P2
2021/11/04 00:01:15;;;;;;;10.03;9.07;;;;;;;;;;5034524;28;20198;-85
2021/11/04 00:03:43;;;;;;;8.60;7.57;;;;;;;;;;5035105;28;20199;-84
2021/11/04 00:06:10;;;;;;;11.17;8.80;;;;;;;;;;5034973;28;20221;-85
2021/11/04 00:08:37;;;;;;;12.20;8.80;;;;;;;;;;5033599;28;20194;-84
2021/11/04 00:11:05;;;;;;;9.30;8.00;;;;;;;;;;5034227;28;20218;-86
2021/11/04 00:13:34;;;;;;;15.90;9.40;;;;;;;;;;5034812;28;20203;-85
2021/11/04 00:16:01;;;;;;;10.53;8.83;;;;;;;;;;5034579;28;20199;-85
2021/11/04 00:18:28;;;;;;;13.23;9.03;;;;;;;;;;5034499;28;20203;-85
2021/11/04 00:20:56;;;;;;;19.07;12.87;;;;;;;;;;5034314;28;20198;-85
2021/11/04 00:23:23;;;;;;;21.10;12.03;;;;;;;;;;5034325;28;20199;-85
2021/11/04 00:25:50;;;;;;;19.33;9.57;;;;;;;;;;5034341;28;20199;-85
2021/11/04 00:28:18;;;;;;;11.03;9.10;;;;;;;;;;5034126;28;20199;-85
2021/11/04 00:30:47;;;;;;;7.07;6.27;;;;;;;;;;5034676;28;20203;-85
2021/11/04 00:33:14;;;;;;;9.40;6.83;;;;;;;;;;5034464;28;20623;-84
2021/11/04 00:35:41;;;;;;;7.70;6.20;;;;;;;;;;5034290;28;20254;-85
2021/11/04 00:38:09;;;;;;;7.90;6.77;;;;;;;;;;5034479;28;20694;-85
2021/11/04 00:40:37;;;;;;;7.27;6.53;;;;;;;;;;5034248;28;20225;-85
2021/11/04 00:43:04;;;;;;;7.13;6.43;;;;;;;;;;5034297;28;20576;-85
2021/11/04 00:45:31;;;;;;;7.67;6.67;;;;;;;;;;5034024;28;20643;-85
2021/11/04 00:48:00;;;;;;;8.60;7.17;;;;;;;;;;5034163;28;20223;-85
2021/11/04 00:50:28;;;;;;;9.27;8.03;;;;;;;;;;5034182;28;20620;-85
2021/11/04 00:52:55;;;;;;;8.47;7.20;;;;;;;;;;5034015;28;20272;-85
2021/11/04 00:55:22;;;;;;;11.70;10.17;;;;;;;;;;5033753;28;20689;-85
2021/11/04 00:57:50;;;;;;;14.47;9.40;;;;;;;;;;5033855;28;20683;-84
2021/11/04 01:00:19;;;;;;;9.40;7.77;;;;;;;;;;5033692;28;20288;-85
2021/11/04 01:02:46;;;;;;;8.20;7.37;;;;;;;;;;5033735;28;20197;-85
2021/11/04 01:05:15;;;;;;;10.23;8.63;;;;;;;;;;5033415;28;20252;-85
2021/11/04 01:07:42;;;;;;;9.43;7.70;;;;;;;;;;5033526;28;20292;-85
2021/11/04 01:10:10;;;;;;;15.40;10.53;;;;;;;;;;5033756;28;20198;-84
2021/11/04 01:12:37;;;;;;;16.63;10.93;;;;;;;;;;5038097;28;20257;-84
2021/11/04 01:15:06;;;;;;;19.73;12.93;;;;;;;;;;5053364;28;20225;-85
2021/11/04 01:17:33;;;;;;;18.53;11.37;;;;;;;;;;5053488;28;20275;-85
2021/11/04 01:20:01;;;;;;;20.37;11.47;;;;;;;;;;5052872;28;20231;-84
2021/11/04 01:22:29;;;;;;;16.10;10.80;;;;;;;;;;5058800;28;20279;-84
2021/11/04 01:24:57;;;;;;;16.97;12.13;;;;;;;;;;5043756;28;20230;-84
2021/11/04 01:27:24;;;;;;;16.37;11.33;;;;;;;;;;5044047;28;20233;-85
2021/11/04 01:29:51;;;;;;;15.47;10.30;;;;;;;;;;5040784;28;20226;-85
2021/11/04 01:32:19;;;;;;;14.40;9.77;;;;;;;;;;5039633;28;20705;-86
2021/11/04 01:34:46;;;;;;;14.33;10.23;;;;;;;;;;5040343;28;20206;-84
2021/11/04 01:37:13;;;;;;;13.00;9.83;;;;;;;;;;5037392;28;20560;-85
2021/11/04 01:39:42;;;;;;;17.13;11.23;;;;;;;;;;5047132;28;20650;-85
2021/11/04 01:42:10;;;;;;;15.37;11.07;;;;;;;;;;5052802;28;20237;-86
2021/11/04 01:44:37;;;;;;;16.87;12.20;;;;;;;;;;5052822;28;20277;-86
2021/11/04 01:47:05;;;;;;;18.60;12.57;;;;;;;;;;5052440;28;20697;-86
2021/11/04 01:49:32;;;;;;;16.90;11.33;;;;;;;;;;5052847;28;20190;-86
2021/11/04 01:52:00;;;;;;;20.10;11.83;;;;;;;;;;5055565;28;20311;-86
2021/11/04 01:54:27;;;;;;;17.30;12.73;;;;;;;;;;5052828;28;20218;-86
2021/11/04 01:56:56;;;;;;;17.47;12.80;;;;;;;;;;5052802;28;20202;-86
2021/11/04 01:59:23;;;;;;;17.03;13.60;;;;;;;;;;5052808;28;20198;-86
2021/11/04 02:01:52;;;;;;;17.93;12.93;;;;;;;;;;5052600;28;20662;-86
2021/11/04 02:04:23;;;;;;;16.07;13.03;;;;;;;;;;5052816;28;20206;-86
2021/11/04 02:06:53;;;;;;;13.60;10.83;;;;;;;;;;5052260;28;20177;-86
2021/11/04 02:09:25;;;;;;;13.63;11.33;;;;;;;;;;5061805;28;20631;-86
2021/11/04 02:11:56;;;;;;;17.80;13.43;;;;;;;;;;5054812;28;20316;-85
2021/11/04 02:14:25;;;;;;;15.40;11.97;;;;;;;;;;5052298;28;20194;-85
2021/11/04 02:16:54;;;;;;;18.00;13.17;;;;;;;;;;5052266;28;20608;-85
2021/11/04 02:19:25;;;;;;;16.80;12.70;;;;;;;;;;5052312;28;20236;-85
2021/11/04 02:21:57;;;;;;;18.93;12.80;;;;;;;;;;5052092;28;20225;-85
2021/11/04 02:24:35;;;;;;;16.10;12.53;;;;;;;;;;5052232;28;20685;-84
2021/11/04 02:27:06;;;;;;;25.23;13.63;;;;;;;;;;5052063;28;20186;-85
2021/11/04 02:29:33;;;;;;;25.93;15.30;;;;;;;;;;5051840;28;20257;-85
2021/11/04 02:32:01;;;;;;;16.30;12.63;;;;;;;;;;5051609;28;20360;-85
2021/11/04 02:34:28;;;;;;;24.17;14.30;;;;;;;;;;5050931;28;20293;-85
2021/11/04 02:36:56;;;;;;;19.67;13.77;;;;;;;;;;5049243;28;20205;-85
2021/11/04 02:39:23;;;;;;;22.83;15.50;;;;;;;;;;5040790;28;20237;-86
2021/11/04 02:41:51;;;;;;;20.80;13.17;;;;;;;;;;5051795;28;20236;-85
2021/11/04 02:44:19;;;;;;;23.93;14.50;;;;;;;;;;5051889;28;20244;-85
2021/11/04 02:46:47;;;;;;;21.57;14.67;;;;;;;;;;5051707;28;20684;-85
2021/11/04 02:49:14;;;;;;;20.40;15.07;;;;;;;;;;5051642;28;20259;-85
2021/11/04 02:51:41;;;;;;;21.97;13.93;;;;;;;;;;5045565;28;20321;-85
2021/11/04 02:54:09;;;;;;;20.37;13.63;;;;;;;;;;5032219;28;20629;-85
2021/11/04 02:56:44;;;;;;;19.53;12.67;;;;;;;;;;5050578;28;20205;-85
2021/11/04 02:59:13;;;;;;;19.97;13.93;;;;;;;;;;5051997;28;20201;-85
2021/11/04 03:01:44;;;;;;;16.87;12.07;;;;;;;;;;5047611;28;20634;-87
2021/11/04 03:04:12;;;;;;;25.93;14.27;;;;;;;;;;5032178;28;20225;-86
2021/11/04 03:06:39;;;;;;;21.90;15.13;;;;;;;;;;5031999;28;20203;-87
2021/11/04 03:09:07;;;;;;;20.27;14.03;;;;;;;;;;5032245;28;20207;-86
2021/11/04 03:11:34;;;;;;;22.27;15.77;;;;;;;;;;5032023;28;20258;-86
2021/11/04 03:14:02;;;;;;;22.27;13.93;;;;;;;;;;5032171;28;20234;-86
2021/11/04 03:16:31;;;;;;;20.60;14.83;;;;;;;;;;5031677;28;20384;-85
2021/11/04 03:19:00;;;;;;;22.60;15.20;;;;;;;;;;5032237;28;20194;-85
2021/11/04 03:21:30;;;;;;;17.23;13.63;;;;;;;;;;5031597;28;20229;-86
2021/11/04 03:23:58;;;;;;;19.93;14.90;;;;;;;;;;5032228;28;20182;-85
2021/11/04 03:26:26;;;;;;;19.80;13.83;;;;;;;;;;5031527;28;20354;-85
2021/11/04 03:28:54;;;;;;;18.43;13.53;;;;;;;;;;5031464;28;20230;-85
2021/11/04 03:31:21;;;;;;;18.27;13.23;;;;;;;;;;5031475;28;20313;-85
2021/11/04 03:33:50;;;;;;;18.57;14.27;;;;;;;;;;5031754;28;20190;-86
2021/11/04 03:36:20;;;;;;;17.53;14.13;;;;;;;;;;5031463;28;20265;-85
2021/11/04 03:38:48;;;;;;;18.33;13.43;;;;;;;;;;5031931;28;20284;-86
2021/11/04 03:41:16;;;;;;;21.40;16.40;;;;;;;;;;5031422;28;20237;-85
2021/11/04 03:43:44;;;;;;;19.43;15.83;;;;;;;;;;5035269;28;20683;-86
2021/11/04 03:46:11;;;;;;;20.60;15.67;;;;;;;;;;5035504;28;20615;-85
2021/11/04 03:48:40;;;;;;;17.80;13.27;;;;;;;;;;5035104;28;20202;-86
2021/11/04 03:51:08;;;;;;;19.63;15.13;;;;;;;;;;5035176;28;20623;-85
2021/11/04 03:53:38;;;;;;;19.03;13.60;;;;;;;;;;5035017;28;20222;-85
2021/11/04 03:56:05;;;;;;;17.50;13.07;;;;;;;;;;5035198;28;20292;-85
2021/11/04 03:58:33;;;;;;;21.57;13.97;;;;;;;;;;5034901;28;20230;-85
2021/11/04 04:01:01;;;;;;;17.33;13.17;;;;;;;;;;5035076;28;20659;-86
2021/11/04 04:03:28;;;;;;;15.60;12.97;;;;;;;;;;5034643;28;20226;-86
2021/11/04 04:06:02;;;;;;;20.37;17.27;;;;;;;;;;5034146;28;20276;-86
2021/11/04 04:08:31;;;;;;;19.83;16.73;;;;;;;;;;5034234;28;20245;-84
2021/11/04 04:11:02;;;;;;;23.70;17.03;;;;;;;;;;5034136;28;20268;-86
2021/11/04 04:13:29;;;;;;;29.07;21.13;;;;;;;;;;5033684;28;20249;-86
2021/11/04 04:15:56;;;;;;;23.73;19.10;;;;;;;;;;5033707;28;20198;-85
2021/11/04 04:18:24;;;;;;;47.40;37.60;;;;;;;;;;5033592;28;20252;-85
2021/11/04 04:20:51;;;;;;;50.30;37.97;;;;;;;;;;5033505;28;20195;-84
2021/11/04 04:23:19;;;;;;;31.77;24.73;;;;;;;;;;5033715;28;20226;-85
2021/11/04 04:25:47;;;;;;;30.27;23.93;;;;;;;;;;5033537;28;20195;-85
2021/11/04 04:28:17;;;;;;;45.63;32.83;;;;;;;;;;5033260;28;20721;-86
2021/11/04 04:30:44;;;;;;;51.47;35.83;;;;;;;;;;5033545;28;20621;-86
2021/11/04 04:33:11;;;;;;;36.40;25.60;;;;;;;;;;5033422;28;20226;-85
2021/11/04 04:35:39;;;;;;;18.87;16.57;;;;;;;;;;5033344;28;20195;-85
2021/11/04 04:38:06;;;;;;;21.43;16.07;;;;;;;;;;5033496;28;20195;-86
2021/11/04 04:40:35;;;;;;;21.87;16.30;;;;;;;;;;5033412;28;20195;-85
2021/11/04 04:43:02;;;;;;;21.30;16.00;;;;;;;;;;5033380;28;20543;-85
2021/11/04 04:45:31;;;;;;;21.43;16.53;;;;;;;;;;5033257;28;20191;-86
2021/11/04 04:47:58;;;;;;;20.67;16.43;;;;;;;;;;5033457;28;20667;-86
2021/11/04 04:50:26;;;;;;;23.40;20.13;;;;;;;;;;5033079;28;20249;-86
2021/11/04 04:52:53;;;;;;;29.33;23.27;;;;;;;;;;5033300;28;20283;-86
2021/11/04 04:55:21;;;;;;;24.57;20.60;;;;;;;;;;5032923;28;20203;-85
2021/11/04 04:57:48;;;;;;;24.37;18.23;;;;;;;;;;5033095;28;20199;-86
2021/11/04 05:00:16;;;;;;;26.63;22.37;;;;;;;;;;5032955;28;20261;-85
2021/11/04 05:02:45;;;;;;;24.73;21.00;;;;;;;;;;5033272;28;20191;-86
2021/11/04 05:05:14;;;;;;;23.63;18.50;;;;;;;;;;5032990;28;20206;-86
2021/11/04 05:07:42;;;;;;;18.73;15.67;;;;;;;;;;5037594;28;20220;-86
2021/11/04 05:10:10;;;;;;;32.17;28.17;;;;;;;;;;5052900;28;20251;-86
2021/11/04 05:12:37;;;;;;;29.50;23.57;;;;;;;;;;5053080;28;20622;-86
2021/11/04 05:15:06;;;;;;;25.20;18.33;;;;;;;;;;5052788;28;20190;-86
2021/11/04 05:17:35;;;;;;;29.33;18.17;;;;;;;;;;5052877;28;20194;-86
2021/11/04 05:20:04;;;;;;;24.57;17.93;;;;;;;;;;5052469;28;20224;-85
2021/11/04 05:22:31;;;;;;;26.53;18.37;;;;;;;;;;5052677;28;20206;-85
2021/11/04 05:24:58;;;;;;;33.37;24.40;;;;;;;;;;5052615;28;20255;-86
2021/11/04 05:27:28;;;;;;;32.77;24.27;;;;;;;;;;5052632;28;20228;-86
2021/11/04 05:29:56;;;;;;;29.20;21.10;;;;;;;;;;5052082;28;20683;-86
2021/11/04 05:32:23;;;;;;;24.20;18.33;;;;;;;;;;5052201;28;20217;-85
2021/11/04 05:34:51;;;;;;;21.47;18.10;;;;;;;;;;5051935;28;20198;-86
2021/11/04 05:37:20;;;;;;;27.00;21.50;;;;;;;;;;5052019;28;20205;-87
2021/11/04 05:39:47;;;;;;;30.03;23.30;;;;;;;;;;5051994;28;20292;-86
2021/11/04 05:42:14;;;;;;;24.10;19.63;;;;;;;;;;5052351;28;20255;-87
2021/11/04 05:44:42;;;;;;;18.90;16.87;;;;;;;;;;5052912;28;20199;-86
2021/11/04 05:47:09;;;;;;;20.63;17.83;;;;;;;;;;5052822;28;20198;-86
2021/11/04 05:49:36;;;;;;;20.27;17.93;;;;;;;;;;5052675;28;20225;-86
2021/11/04 05:52:04;;;;;;;19.30;16.40;;;;;;;;;;5052663;28;20281;-87
2021/11/04 05:54:34;;;;;;;17.90;14.87;;;;;;;;;;5053098;28;20582;-87
2021/11/04 05:57:01;;;;;;;18.83;15.00;;;;;;;;;;5052962;28;20584;-87
2021/11/04 05:59:28;;;;;;;18.37;15.70;;;;;;;;;;5052848;28;20300;-86
2021/11/04 06:01:56;;;;;;;19.10;16.63;;;;;;;;;;5052634;28;20206;-87
2021/11/04 06:04:24;;;;;;;18.00;16.07;;;;;;;;;;5052518;28;20319;-87
2021/11/04 06:06:51;;;;;;;21.13;18.87;;;;;;;;;;5051753;28;20198;-87
2021/11/04 06:09:18;;;;;;;21.60;19.30;;;;;;;;;;5052836;28;20255;-87
2021/11/04 06:11:47;;;;;;;35.60;25.93;;;;;;;;;;5052296;28;20290;-87
2021/11/04 06:14:15;;;;;;;33.17;24.30;;;;;;;;;;5052336;28;20221;-87
2021/11/04 06:16:43;;;;;;;33.83;26.63;;;;;;;;;;5052516;28;20263;-87
2021/11/04 06:19:10;;;;;;;23.57;20.13;;;;;;;;;;5052363;28;20202;-87
2021/11/04 06:21:37;;;;;;;21.73;19.20;;;;;;;;;;5052036;28;20234;-87
2021/11/04 06:24:05;;;;;;;20.50;17.57;;;;;;;;;;5052614;28;20198;-86
2021/11/04 06:26:32;;;;;;;24.10;19.67;;;;;;;;;;5052094;28;20746;-87
2021/11/04 06:29:01;;;;;;;29.37;22.30;;;;;;;;;;5052208;28;20684;-87
2021/11/04 06:31:28;;;;;;;33.20;28.30;;;;;;;;;;5052103;28;20617;-87
2021/11/04 06:33:55;;;;;;;25.70;21.33;;;;;;;;;;5052243;28;20253;-87
2021/11/04 06:36:23;;;;;;;29.30;22.80;;;;;;;;;;5051880;28;20194;-87
2021/11/04 06:38:51;;;;;;;23.70;20.90;;;;;;;;;;5052417;28;20194;-86
2021/11/04 06:41:18;;;;;;;18.90;16.97;;;;;;;;;;5051791;28;20202;-87
2021/11/04 06:43:45;;;;;;;19.90;17.77;;;;;;;;;;5052010;28;20284;-87
2021/11/04 06:46:15;;;;;;;16.83;15.00;;;;;;;;;;5051778;28;20228;-87
2021/11/04 06:48:43;;;;;;;12.33;11.20;;;;;;;;;;5051896;28;20201;-86
2021/11/04 06:51:12;;;;;;;12.20;10.97;;;;;;;;;;5051521;28;20199;-86
2021/11/04 06:53:44;;;;;;;11.97;10.87;;;;;;;;;;5051822;28;20260;-86
2021/11/04 06:56:11;;;;;;;12.70;11.40;;;;;;;;;;5051725;28;20632;-86
2021/11/04 06:58:39;;;;;;;12.40;11.20;;;;;;;;;;5051837;28;20247;-86
2021/11/04 07:01:09;;;;;;;12.27;11.07;;;;;;;;;;5051872;28;20229;-86
2021/11/04 07:03:44;;;;;;;12.00;10.80;;;;;;;;;;5052223;28;20182;-86
2021/11/04 07:06:11;;;;;;;10.83;9.83;;;;;;;;;;5051672;28;20181;-87
2021/11/04 07:08:44;;;;;;;12.90;11.33;;;;;;;;;;5051929;28;20713;-87
2021/11/04 07:11:11;;;;;;;13.80;11.50;;;;;;;;;;5051686;28;20217;-87
2021/11/04 07:13:39;;;;;;;12.30;11.23;;;;;;;;;;5051578;28;20256;-87
2021/11/04 07:16:07;;;;;;;12.60;11.30;;;;;;;;;;5051707;28;20200;-86
2021/11/04 07:18:34;;;;;;;11.93;10.83;;;;;;;;;;5055712;28;20206;-86
2021/11/04 07:21:09;;;;;;;11.43;10.37;;;;;;;;;;5055512;28;20669;-87
2021/11/04 07:23:40;;;;;;;12.17;10.97;;;;;;;;;;5055606;28;20236;-86
2021/11/04 07:26:08;;;;;;;16.67;11.10;;;;;;;;;;5055393;28;20712;-87
2021/11/04 07:28:39;;;;;;;13.10;11.87;;;;;;;;;;5055116;28;20232;-87
2021/11/04 07:31:09;;;;;;;12.53;11.30;;;;;;;;;;5055410;28;20275;-87
2021/11/04 07:33:37;;;;;;;12.80;11.67;;;;;;;;;;5055369;28;20216;-87
2021/11/04 07:36:06;;;;;;;14.80;13.30;;;;;;;;;;5054997;28;20256;-87
2021/11/04 07:38:35;;;;;;;13.43;12.13;;;;;;;;;;5055230;28;20197;-86
2021/11/04 07:41:02;;;;;;;14.10;12.70;;;;;;;;;;5055155;28;20205;-87
2021/11/04 07:43:30;;;;;;;14.73;13.13;;;;;;;;;;5053947;28;20193;-86
2021/11/04 07:45:59;;;;;;;13.00;11.80;;;;;;;;;;5054263;28;20291;-87
2021/11/04 07:48:26;;;;;;;14.93;13.17;;;;;;;;;;5055185;28;20208;-87
2021/11/04 07:50:54;;;;;;;13.57;12.27;;;;;;;;;;5055041;28;20198;-87
2021/11/04 07:53:23;;;;;;;16.57;14.57;;;;;;;;;;5055103;28;20237;-87
2021/11/04 07:55:51;;;;;;;16.83;15.20;;;;;;;;;;5055231;28;20331;-87
2021/11/04 07:58:18;;;;;;;16.27;14.57;;;;;;;;;;5054832;28;20236;-86
2021/11/04 08:00:46;;;;;;;14.03;12.63;;;;;;;;;;5055123;28;20229;-87
2021/11/04 08:03:13;;;;;;;17.90;16.10;;;;;;;;;;5054975;28;20198;-87
2021/11/04 08:05:40;;;;;;;28.63;24.80;;;;;;;;;;5054758;28;20271;-87
2021/11/04 08:08:09;;;;;;;29.83;26.07;;;;;;;;;;5054966;28;20632;-87
2021/11/04 08:10:38;;;;;;;14.70;13.30;;;;;;;;;;5054912;28;20585;-86
2021/11/04 08:13:08;;;;;;;15.07;13.67;;;;;;;;;;5055294;28;20204;-86
2021/11/04 08:15:36;;;;;;;15.03;13.57;;;;;;;;;;5054285;28;20198;-87
2021/11/04 08:18:03;;;;;;;15.13;13.00;;;;;;;;;;5054863;28;20206;-86
2021/11/04 08:20:31;;;;;;;16.87;15.13;;;;;;;;;;5054487;28;20198;-87
2021/11/04 08:22:58;;;;;;;19.77;15.43;;;;;;;;;;5054541;28;20194;-87
2021/11/04 08:25:26;;;;;;;17.17;13.57;;;;;;;;;;5054237;28;20670;-87
2021/11/04 08:27:55;;;;;;;15.73;13.40;;;;;;;;;;5053629;28;20205;-86
2021/11/04 08:30:24;;;;;;;16.30;14.37;;;;;;;;;;5053701;28;20295;-86
2021/11/04 08:32:52;;;;;;;15.20;13.70;;;;;;;;;;5054380;28;20198;-86
2021/11/04 08:35:19;;;;;;;16.67;13.60;;;;;;;;;;5053953;28;20283;-87
2021/11/04 08:37:47;;;;;;;13.43;12.03;;;;;;;;;;5053979;28;20631;-87
2021/11/04 08:40:15;;;;;;;15.00;12.63;;;;;;;;;;5053969;28;20288;-87
2021/11/04 08:42:42;;;;;;;19.87;15.93;;;;;;;;;;5054390;28;20248;-86
2021/11/04 08:45:11;;;;;;;14.93;13.43;;;;;;;;;;5053862;28;20194;-86
2021/11/04 08:47:39;;;;;;;16.60;14.90;;;;;;;;;;5053813;28;20289;-87
2021/11/04 08:50:08;;;;;;;16.87;14.73;;;;;;;;;;5053879;28;20198;-87
2021/11/04 08:52:36;;;;;;;19.80;14.43;;;;;;;;;;5053876;28;20677;-86
2021/11/04 08:55:04;;;;;;;14.40;12.90;;;;;;;;;;5053581;28;20312;-85
2021/11/04 08:57:31;;;;;;;15.37;12.47;;;;;;;;;;5053812;28;20198;-86
2021/11/04 08:59:59;;;;;;;16.03;12.40;;;;;;;;;;5053733;28;20632;-86
2021/11/04 09:02:27;;;;;;;13.47;12.17;;;;;;;;;;5054031;28;20292;-86
2021/11/04 09:04:55;;;;;;;13.30;11.90;;;;;;;;;;5053681;28;20195;-87
2021/11/04 09:07:23;;;;;;;14.90;13.40;;;;;;;;;;5053768;28;20204;-87
2021/11/04 09:09:50;;;;;;;13.43;11.80;;;;;;;;;;5053447;28;20228;-86
2021/11/04 09:12:18;;;;;;;13.90;12.60;;;;;;;;;;5053310;28;20204;-86
2021/11/04 09:14:45;;;;;;;14.57;12.20;;;;;;;;;;5053730;28;20225;-86
2021/11/04 09:17:14;;;;;;;13.50;12.17;;;;;;;;;;5053488;28;20300;-86
2021/11/04 09:19:43;;;;;;;16.07;12.83;;;;;;;;;;5053536;28;20292;-85
2021/11/04 09:22:10;;;;;;;13.87;12.20;;;;;;;;;;5053295;28;20255;-86
2021/11/04 09:24:38;;;;;;;14.87;13.27;;;;;;;;;;5053193;28;20205;-86
2021/11/04 09:27:06;;;;;;;14.03;12.57;;;;;;;;;;5053107;28;20197;-85
2021/11/04 09:29:34;;;;;;;14.10;12.60;;;;;;;;;;5053086;28;20766;-87
2021/11/04 09:32:02;;;;;;;15.40;13.67;;;;;;;;;;5052999;28;20285;-86
2021/11/04 09:34:29;;;;;;;16.63;13.23;;;;;;;;;;5053165;28;20225;-86
2021/11/04 09:36:58;;;;;;;15.87;12.90;;;;;;;;;;5053132;28;20237;-86
2021/11/04 09:39:25;;;;;;;13.93;11.83;;;;;;;;;;5053092;28;20197;-86
2021/11/04 09:41:53;;;;;;;13.27;11.87;;;;;;;;;;5052997;28;20201;-86
2021/11/04 09:44:21;;;;;;;18.57;13.07;;;;;;;;;;5053130;28;20571;-86
2021/11/04 09:46:48;;;;;;;14.20;12.80;;;;;;;;;;5053125;28;20255;-86
2021/11/04 09:49:16;;;;;;;14.60;13.07;;;;;;;;;;5053125;28;20197;-86
2021/11/04 09:51:43;;;;;;;13.43;11.37;;;;;;;;;;5053063;28;20315;-86
2021/11/04 09:54:12;;;;;;;18.47;12.83;;;;;;;;;;5052908;28;20221;-87
2021/11/04 09:56:40;;;;;;;18.87;13.47;;;;;;;;;;5053018;28;20233;-87
2021/11/04 09:59:07;;;;;;;13.83;11.30;;;;;;;;;;5053228;28;20392;-87
2021/11/04 10:01:35;;;;;;;14.50;13.03;;;;;;;;;;5052419;28;20202;-87
2021/11/04 10:04:05;;;;;;;16.33;14.63;;;;;;;;;;5052677;28;20224;-86
2021/11/04 10:06:33;;;;;;;17.67;13.70;;;;;;;;;;5052937;28;20193;-86
2021/11/04 10:09:04;;;;;;;15.27;11.50;;;;;;;;;;5052562;28;20272;-86
2021/11/04 10:11:35;;;;;;;11.33;9.93;;;;;;;;;;5052597;28;20209;-86
2021/11/04 10:14:04;;;;;;;10.53;9.13;;;;;;;;;;5052608;28;20206;-87
2021/11/04 10:16:33;;;;;;;11.23;9.93;;;;;;;;;;5051958;28;20201;-86
2021/11/04 10:19:03;;;;;;;10.50;9.40;;;;;;;;;;5052340;28;20197;-87
2021/11/04 10:21:32;;;;;;;16.93;8.80;;;;;;;;;;5052491;28;20202;-87
2021/11/04 10:23:59;;;;;;;10.97;9.53;;;;;;;;;;5052412;28;20605;-87
2021/11/04 10:26:29;;;;;;;9.07;8.13;;;;;;;;;;5052076;28;20226;-86
2021/11/04 10:29:01;;;;;;;13.60;10.00;;;;;;;;;;5052233;28;20226;-86
2021/11/04 10:31:37;;;;;;;12.80;11.57;;;;;;;;;;5052228;28;20213;-86
2021/11/04 10:34:04;;;;;;;13.73;10.17;;;;;;;;;;5052025;28;20305;-86
2021/11/04 10:36:31;;;;;;;14.03;9.10;;;;;;;;;;5052421;28;20598;-86
2021/11/04 10:39:00;;;;;;;16.03;11.80;;;;;;;;;;5052401;28;20664;-86
2021/11/04 10:41:30;;;;;;;8.97;8.07;;;;;;;;;;5052003;28;20731;-86
2021/11/04 10:44:02;;;;;;;10.73;9.30;;;;;;;;;;5052077;28;20677;-86
2021/11/04 10:46:30;;;;;;;14.30;9.93;;;;;;;;;;5051986;28;20284;-86
2021/11/04 10:48:59;;;;;;;9.67;8.77;;;;;;;;;;5052019;28;20692;-86
2021/11/04 10:51:28;;;;;;;11.70;8.03;;;;;;;;;;5051339;28;20292;-87
2021/11/04 10:54:00;;;;;;;9.33;7.90;;;;;;;;;;5051780;28;20201;-86
2021/11/04 10:56:28;;;;;;;11.77;8.63;;;;;;;;;;5051775;28;20197;-86
2021/11/04 10:58:58;;;;;;;11.83;8.80;;;;;;;;;;5051887;28;20205;-86
2021/11/04 11:01:32;;;;;;;10.60;9.53;;;;;;;;;;5051748;28;20233;-86
2021/11/04 11:04:02;;;;;;;12.37;8.77;;;;;;;;;;5051943;28;20233;-86
2021/11/04 11:06:31;;;;;;;15.70;11.63;;;;;;;;;;5051588;28;20251;-86
2021/11/04 11:09:02;;;;;;;10.70;9.53;;;;;;;;;;5051848;28;20201;-86
2021/11/04 11:11:29;;;;;;;10.97;9.53;;;;;;;;;;5051722;28;20221;-86
2021/11/04 11:13:56;;;;;;;11.10;8.67;;;;;;;;;;5051657;28;20198;-86
2021/11/04 11:16:23;;;;;;;11.33;9.60;;;;;;;;;;5051305;28;20197;-86
2021/11/04 11:18:55;;;;;;;10.63;9.40;;;;;;;;;;5051876;28;20194;-86
2021/11/04 11:21:25;;;;;;;14.63;12.00;;;;;;;;;;5051874;28;20564;-87
2021/11/04 11:23:53;;;;;;;22.13;14.27;;;;;;;;;;5051904;28;20202;-86
2021/11/04 11:26:21;;;;;;;19.10;13.83;;;;;;;;;;5051583;28;20632;-86
2021/11/04 11:28:48;;;;;;;25.53;13.87;;;;;;;;;;5051765;28;20661;-86
2021/11/04 11:31:18;;;;;;;16.23;13.60;;;;;;;;;;5051776;28;20186;-86
2021/11/04 11:33:47;;;;;;;19.53;14.90;;;;;;;;;;5051562;28;20201;-86
2021/11/04 11:36:18;;;;;;;16.67;13.37;;;;;;;;;;5050987;28;20259;-86
2021/11/04 11:39:09;;;;;;;19.33;14.70;;;;;;;;;;5051826;28;20190;-86
2021/11/04 11:42:07;;;;;;;14.73;13.17;;;;;;;;;;5051685;28;20281;-85
2021/11/04 11:44:36;;;;;;;18.57;14.33;;;;;;;;;;5051567;28;20200;-86
2021/11/04 11:47:04;;;;;;;15.70;13.37;;;;;;;;;;5051707;28;20194;-86
2021/11/04 11:49:32;;;;;;;15.50;12.83;;;;;;;;;;5051163;28;20236;-86
2021/11/04 11:52:01;;;;;;;22.33;16.63;;;;;;;;;;5051296;28;20678;-86
2021/11/04 11:55:03;;;;;;;15.33;11.50;;;;;;;;;;5051322;28;20222;-86
2021/11/04 11:57:30;;;;;;;14.10;12.30;;;;;;;;;;5045191;28;20233;-86
2021/11/04 11:59:59;;;;;;;17.10;12.87;;;;;;;;;;5051312;28;20229;-86
2021/11/04 12:02:52;;;;;;;11.47;9.80;;;;;;;;;;5051221;28;20204;-85
2021/11/04 12:05:39;;;;;;;9.73;8.60;;;;;;;;;;5054356;28;20209;-86
2021/11/04 12:08:35;;;;;;;11.33;9.20;;;;;;;;;;5054908;28;20289;-86
2021/11/04 12:11:06;;;;;;;11.43;9.13;;;;;;;;;;5054580;28;20643;-86
2021/11/04 12:13:36;;;;;;;11.23;9.70;;;;;;;;;;5054838;28;20218;-87
2021/11/04 12:16:13;;;;;;;14.27;10.27;;;;;;;;;;5054502;28;20225;-86
2021/11/04 12:18:52;;;;;;;12.77;11.27;;;;;;;;;;5054722;28;20657;-86
2021/11/04 12:21:24;;;;;;;17.67;13.23;;;;;;;;;;5054423;28;20198;-86
2021/11/04 12:23:54;;;;;;;15.13;12.20;;;;;;;;;;5054625;28;20236;-86
2021/11/04 12:26:31;;;;;;;13.20;11.77;;;;;;;;;;5054323;28;20255;-85
2021/11/04 12:28:59;;;;;;;13.53;10.77;;;;;;;;;;5054030;28;20233;-86
2021/11/04 12:31:28;;;;;;;14.33;11.63;;;;;;;;;;5054267;28;20260;-86
2021/11/04 12:33:56;;;;;;;17.27;11.33;;;;;;;;;;5054314;28;20193;-86
2021/11/04 12:36:30;;;;;;;13.37;11.00;;;;;;;;;;5054134;28;20264;-86
2021/11/04 12:38:58;;;;;;;15.30;12.20;;;;;;;;;;5054383;28;20190;-86
2021/11/04 12:41:27;;;;;;;17.53;13.60;;;;;;;;;;5053824;28;20206;-86
2021/11/04 12:44:01;;;;;;;15.83;13.27;;;;;;;;;;5054086;28;20194;-86
2021/11/04 12:46:31;;;;;;;14.87;12.20;;;;;;;;;;5054262;28;20322;-86
2021/11/04 12:48:59;;;;;;;15.83;10.77;;;;;;;;;;5054418;28;20285;-86
2021/11/04 12:51:28;;;;;;;11.93;10.73;;;;;;;;;;5053894;28;20248;-86
2021/11/04 12:53:57;;;;;;;12.47;10.70;;;;;;;;;;5053974;28;20284;-86
2021/11/04 12:59:32;;;;;;;10.50;8.67;;;;;;;;;;5151452;27;21089;-87
2021/11/04 13:02:01;;;;;;;16.13;10.10;;;;;;;;;;5151044;27;20242;-87
2021/11/04 13:04:30;;;;;;;11.87;8.93;;;;;;;;;;5151425;27;20704;-87
2021/11/04 13:06:58;;;;;;;8.63;7.83;;;;;;;;;;5150995;27;20194;-87
2021/11/04 13:09:26;;;;;;;12.93;8.83;;;;;;;;;;5151073;27;20194;-87
2021/11/04 13:12:11;;;;;;;10.93;8.67;;;;;;;;;;5151211;27;20202;-87
2021/11/04 13:15:10;;;;;;;10.33;8.53;;;;;;;;;;5151286;27;20221;-87
2021/11/04 13:17:51;;;;;;;10.10;8.13;;;;;;;;;;5151066;27;20253;-87
2021/11/04 13:20:23;;;;;;;11.23;8.53;;;;;;;;;;5150520;27;20190;-87
2021/11/04 13:22:53;;;;;;;11.97;8.83;;;;;;;;;;5150820;27;20273;-86
2021/11/04 13:25:22;;;;;;;9.87;8.67;;;;;;;;;;5151004;27;20377;-87
2021/11/04 13:27:54;;;;;;;10.47;8.70;;;;;;;;;;5150705;27;20260;-87
2021/11/04 13:30:32;;;;;;;13.00;9.67;;;;;;;;;;5150507;27;20205;-87
2021/11/04 13:33:00;;;;;;;15.33;12.17;;;;;;;;;;5150560;27;20706;-87
2021/11/04 13:35:31;;;;;;;18.70;13.07;;;;;;;;;;5150577;27;20218;-87
2021/11/04 13:38:07;;;;;;;12.50;11.20;;;;;;;;;;5150467;27;20220;-87
2021/11/04 13:40:41;;;;;;;14.93;12.20;;;;;;;;;;5150717;27;20216;-87
2021/11/04 13:43:08;;;;;;;17.63;11.87;;;;;;;;;;5150420;27;20235;-87
2021/11/04 13:45:39;;;;;;;16.93;13.53;;;;;;;;;;5150124;27;20202;-87
2021/11/04 13:48:07;;;;;;;13.30;11.47;;;;;;;;;;5150368;27;20178;-87
2021/11/04 13:50:40;;;;;;;15.23;10.87;;;;;;;;;;5150252;27;20190;-87
2021/11/04 13:53:19;;;;;;;15.10;10.77;;;;;;;;;;5150635;27;20191;-87
2021/11/04 13:55:48;;;;;;;11.77;9.50;;;;;;;;;;5150406;27;20269;-87
2021/11/04 13:58:15;;;;;;;13.27;9.40;;;;;;;;;;5149829;27;20283;-86
2021/11/04 14:00:44;;;;;;;12.63;10.67;;;;;;;;;;5150267;27;20604;-87
2021/11/04 14:03:16;;;;;;;21.43;16.60;;;;;;;;;;5149923;27;20275;-87
2021/11/04 14:05:53;;;;;;;9.17;6.63;;;;;;;;;;5149830;27;20187;-87
2021/11/04 14:08:21;;;;;;;12.57;8.27;;;;;;;;;;5150357;27;20186;-87
2021/11/04 14:10:49;;;;;;;14.60;9.57;;;;;;;;;;5135470;27;20255;-87
2021/11/04 14:13:16;;;;;;;8.90;7.20;;;;;;;;;;5136230;27;20577;-87
2021/11/04 14:15:45;;;;;;;11.33;7.07;;;;;;;;;;5135878;27;20741;-87
2021/11/04 14:18:20;;;;;;;8.13;6.73;;;;;;;;;;5136106;27;20600;-87
2021/11/04 14:20:48;;;;;;;10.00;7.77;;;;;;;;;;5135601;27;20201;-87
2021/11/04 14:23:17;;;;;;;12.70;9.30;;;;;;;;;;5136024;27;20274;-87
2021/11/04 14:25:49;;;;;;;13.97;8.27;;;;;;;;;;5135956;27;20643;-87
2021/11/04 14:28:16;;;;;;;12.70;9.40;;;;;;;;;;5136096;27;20183;-87
2021/11/04 14:30:46;;;;;;;22.23;14.53;;;;;;;;;;5135812;27;20205;-86
2021/11/04 14:33:15;;;;;;;31.47;23.70;;;;;;;;;;5135861;27;20571;-87
2021/11/04 14:35:42;;;;;;;30.30;23.70;;;;;;;;;;5135865;27;20627;-87